sensor_id;sensor_type;location;lat;lon;timestamp;temperature;humidity
35559;DHT22;21661;50.794;-1.066;2023-06-14T00:01:02;19.70;99.90
35559;DHT22;21661;50.794;-1.066;2023-06-14T00:03:28;19.60;99.90
35559;DHT22;21661;50.794;-1.066;2023-06-14T00:05:54;19.60;99.90
35559;DHT22;21661;50.794;-1.066;2023-06-14T00:08:20;19.60;99.90
35559;DHT22;21661;50.794;-1.066;2023-06-14T00:10:48;19.60;99.90
35559;DHT22;21661;50.794;-1.066;2023-06-14T00:13:13;19.60;99.90
35559;DHT22;21661;50.794;-1.066;2023-06-14T00:15:40;19.50;99.90
35559;DHT22;21661;50.794;-1.066;2023-06-14T00:18:06;19.60;99.90
35559;DHT22;21661;50.794;-1.066;2023-06-14T00:20:32;19.50;99.90
35559;DHT22;21661;50.794;-1.066;2023-06-14T00:22:59;19.50;99.90
35559;DHT22;21661;50.794;-1.066;2023-06-14T00:25:25;19.50;99.90
35559;DHT22;21661;50.794;-1.066;2023-06-14T00:27:52;19.50;99.90
35559;DHT22;21661;50.794;-1.066;2023-06-14T00:30:17;19.40;99.90
35559;DHT22;21661;50.794;-1.066;2023-06-14T00:32:44;19.40;99.90
35559;DHT22;21661;50.794;-1.066;2023-06-14T00:35:10;19.40;99.90
35559;DHT22;21661;50.794;-1.066;2023-06-14T00:37:36;19.50;99.90
35559;DHT22;21661;50.794;-1.066;2023-06-14T00:40:03;19.50;99.90
35559;DHT22;21661;50.794;-1.066;2023-06-14T00:42:30;19.40;99.90
35559;DHT22;21661;50.794;-1.066;2023-06-14T00:44:56;19.40;99.90
35559;DHT22;21661;50.794;-1.066;2023-06-14T00:47:22;19.30;99.90
35559;DHT22;21661;50.794;-1.066;2023-06-14T00:49:49;19.30;99.90
35559;DHT22;21661;50.794;-1.066;2023-06-14T00:52:15;19.20;99.90
35559;DHT22;21661;50.794;-1.066;2023-06-14T00:54:42;19.20;99.90
35559;DHT22;21661;50.794;-1.066;2023-06-14T00:57:08;19.30;99.90
35559;DHT22;21661;50.794;-1.066;2023-06-14T00:59:42;19.20;99.90
35559;DHT22;21661;50.794;-1.066;2023-06-14T01:02:08;19.20;99.90
35559;DHT22;21661;50.794;-1.066;2023-06-14T01:04:34;19.20;99.90
35559;DHT22;21661;50.794;-1.066;2023-06-14T01:12:58;19.10;99.90
35559;DHT22;21661;50.794;-1.066;2023-06-14T01:15:25;19.10;99.90
35559;DHT22;21661;50.794;-1.066;2023-06-14T01:17:51;19.10;99.90
35559;DHT22;21661;50.794;-1.066;2023-06-14T01:20:19;19.00;99.90
35559;DHT22;21661;50.794;-1.066;2023-06-14T01:22:55;19.00;99.90
35559;DHT22;21661;50.794;-1.066;2023-06-14T01:25:21;19.00;99.90
35559;DHT22;21661;50.794;-1.066;2023-06-14T01:27:57;19.00;99.90
35559;DHT22;21661;50.794;-1.066;2023-06-14T01:30:23;18.90;99.90
35559;DHT22;21661;50.794;-1.066;2023-06-14T01:32:51;18.90;99.90
35559;DHT22;21661;50.794;-1.066;2023-06-14T01:35:17;18.90;99.90
35559;DHT22;21661;50.794;-1.066;2023-06-14T01:37:44;18.80;99.90
35559;DHT22;21661;50.794;-1.066;2023-06-14T01:40:12;18.70;99.90
35559;DHT22;21661;50.794;-1.066;2023-06-14T01:42:40;18.80;99.90
35559;DHT22;21661;50.794;-1.066;2023-06-14T01:45:06;18.80;99.90
35559;DHT22;21661;50.794;-1.066;2023-06-14T01:47:33;18.70;99.90
35559;DHT22;21661;50.794;-1.066;2023-06-14T01:50:00;18.70;99.90
35559;DHT22;21661;50.794;-1.066;2023-06-14T01:52:25;18.80;99.90
35559;DHT22;21661;50.794;-1.066;2023-06-14T01:54:51;18.70;99.90
35559;DHT22;21661;50.794;-1.066;2023-06-14T01:57:17;18.70;99.90
35559;DHT22;21661;50.794;-1.066;2023-06-14T01:59:42;18.70;99.90
35559;DHT22;21661;50.794;-1.066;2023-06-14T02:02:14;18.60;99.90
35559;DHT22;21661;50.794;-1.066;2023-06-14T02:04:39;18.60;99.90
35559;DHT22;21661;50.794;-1.066;2023-06-14T02:07:05;18.70;99.90
35559;DHT22;21661;50.794;-1.066;2023-06-14T02:09:31;18.60;99.90
35559;DHT22;21661;50.794;-1.066;2023-06-14T02:11:56;18.60;99.90
35559;DHT22;21661;50.794;-1.066;2023-06-14T02:14:22;18.70;99.90
35559;DHT22;21661;50.794;-1.066;2023-06-14T02:16:48;18.60;99.90
35559;DHT22;21661;50.794;-1.066;2023-06-14T02:19:18;18.60;99.90
35559;DHT22;21661;50.794;-1.066;2023-06-14T02:21:44;18.60;99.90
35559;DHT22;21661;50.794;-1.066;2023-06-14T02:24:10;18.50;99.90
35559;DHT22;21661;50.794;-1.066;2023-06-14T02:26:36;18.40;99.90
35559;DHT22;21661;50.794;-1.066;2023-06-14T02:29:06;18.40;99.90
35559;DHT22;21661;50.794;-1.066;2023-06-14T02:31:35;18.40;99.90
35559;DHT22;21661;50.794;-1.066;2023-06-14T02:34:00;18.40;99.90
35559;DHT22;21661;50.794;-1.066;2023-06-14T02:36:26;18.30;99.60
35559;DHT22;21661;50.794;-1.066;2023-06-14T02:38:51;18.40;98.90
35559;DHT22;21661;50.794;-1.066;2023-06-14T02:41:19;18.30;98.30
35559;DHT22;21661;50.794;-1.066;2023-06-14T02:43:45;18.30;98.20
35559;DHT22;21661;50.794;-1.066;2023-06-14T02:46:10;18.30;98.10
35559;DHT22;21661;50.794;-1.066;2023-06-14T02:48:36;18.20;98.30
35559;DHT22;21661;50.794;-1.066;2023-06-14T02:51:02;18.30;98.10
35559;DHT22;21661;50.794;-1.066;2023-06-14T02:53:27;18.30;98.60
35559;DHT22;21661;50.794;-1.066;2023-06-14T02:55:53;18.20;98.20
35559;DHT22;21661;50.794;-1.066;2023-06-14T02:58:20;18.20;97.90
35559;DHT22;21661;50.794;-1.066;2023-06-14T03:00:46;18.20;97.60
35559;DHT22;21661;50.794;-1.066;2023-06-14T03:03:12;18.20;97.00
35559;DHT22;21661;50.794;-1.066;2023-06-14T03:05:45;18.20;97.40
35559;DHT22;21661;50.794;-1.066;2023-06-14T03:08:15;18.00;97.30
35559;DHT22;21661;50.794;-1.066;2023-06-14T03:10:49;18.00;97.20
35559;DHT22;21661;50.794;-1.066;2023-06-14T03:13:15;18.00;97.40
35559;DHT22;21661;50.794;-1.066;2023-06-14T03:15:46;17.90;97.60
35559;DHT22;21661;50.794;-1.066;2023-06-14T03:18:13;17.90;97.50
35559;DHT22;21661;50.794;-1.066;2023-06-14T03:20:40;17.90;97.20
35559;DHT22;21661;50.794;-1.066;2023-06-14T03:23:08;17.80;97.60
35559;DHT22;21661;50.794;-1.066;2023-06-14T03:25:33;17.80;97.40
35559;DHT22;21661;50.794;-1.066;2023-06-14T03:28:07;17.80;97.50
35559;DHT22;21661;50.794;-1.066;2023-06-14T03:30:32;17.80;97.30
35559;DHT22;21661;50.794;-1.066;2023-06-14T03:32:58;17.80;97.50
35559;DHT22;21661;50.794;-1.066;2023-06-14T03:35:26;17.70;97.40
35559;DHT22;21661;50.794;-1.066;2023-06-14T03:37:52;17.70;97.50
35559;DHT22;21661;50.794;-1.066;2023-06-14T03:40:18;17.80;97.50
35559;DHT22;21661;50.794;-1.066;2023-06-14T03:42:45;17.70;97.00
35559;DHT22;21661;50.794;-1.066;2023-06-14T03:45:11;17.70;96.90
35559;DHT22;21661;50.794;-1.066;2023-06-14T03:47:36;17.60;97.30
35559;DHT22;21661;50.794;-1.066;2023-06-14T03:50:03;17.50;97.30
35559;DHT22;21661;50.794;-1.066;2023-06-14T03:52:29;17.50;97.50
35559;DHT22;21661;50.794;-1.066;2023-06-14T03:54:54;17.50;97.90
35559;DHT22;21661;50.794;-1.066;2023-06-14T03:57:21;17.50;97.60
35559;DHT22;21661;50.794;-1.066;2023-06-14T03:59:47;17.40;97.90
35559;DHT22;21661;50.794;-1.066;2023-06-14T04:02:12;17.20;97.70
35559;DHT22;21661;50.794;-1.066;2023-06-14T04:04:41;17.10;97.50
35559;DHT22;21661;50.794;-1.066;2023-06-14T04:07:10;17.10;97.70
35559;DHT22;21661;50.794;-1.066;2023-06-14T04:09:37;17.00;97.60
35559;DHT22;21661;50.794;-1.066;2023-06-14T04:12:03;17.00;97.40
35559;DHT22;21661;50.794;-1.066;2023-06-14T04:14:29;17.00;97.70
35559;DHT22;21661;50.794;-1.066;2023-06-14T04:16:56;16.90;97.70
35559;DHT22;21661;50.794;-1.066;2023-06-14T04:19:21;16.90;98.10
35559;DHT22;21661;50.794;-1.066;2023-06-14T04:21:47;16.90;97.80
35559;DHT22;21661;50.794;-1.066;2023-06-14T04:24:13;16.80;98.00
35559;DHT22;21661;50.794;-1.066;2023-06-14T04:26:40;16.80;98.20
35559;DHT22;21661;50.794;-1.066;2023-06-14T04:29:06;16.70;98.60
35559;DHT22;21661;50.794;-1.066;2023-06-14T04:31:32;16.70;98.90
35559;DHT22;21661;50.794;-1.066;2023-06-14T04:34:03;16.70;99.00
35559;DHT22;21661;50.794;-1.066;2023-06-14T04:36:34;16.70;99.80
35559;DHT22;21661;50.794;-1.066;2023-06-14T04:39:02;16.60;99.80
35559;DHT22;21661;50.794;-1.066;2023-06-14T04:41:32;16.60;99.80
35559;DHT22;21661;50.794;-1.066;2023-06-14T04:43:59;16.50;99.90
35559;DHT22;21661;50.794;-1.066;2023-06-14T04:46:30;16.50;99.90
35559;DHT22;21661;50.794;-1.066;2023-06-14T04:48:57;16.50;99.90
35559;DHT22;21661;50.794;-1.066;2023-06-14T04:51:28;16.50;99.90
35559;DHT22;21661;50.794;-1.066;2023-06-14T04:53:58;16.50;99.90
35559;DHT22;21661;50.794;-1.066;2023-06-14T04:56:24;16.60;99.90
35559;DHT22;21661;50.794;-1.066;2023-06-14T04:58:51;16.60;99.90
35559;DHT22;21661;50.794;-1.066;2023-06-14T05:01:18;16.50;99.90
35559;DHT22;21661;50.794;-1.066;2023-06-14T05:03:44;16.50;99.90
35559;DHT22;21661;50.794;-1.066;2023-06-14T05:06:11;16.40;99.90
35559;DHT22;21661;50.794;-1.066;2023-06-14T05:08:37;16.40;99.90
35559;DHT22;21661;50.794;-1.066;2023-06-14T05:11:03;16.40;99.90
35559;DHT22;21661;50.794;-1.066;2023-06-14T05:13:28;16.20;99.90
35559;DHT22;21661;50.794;-1.066;2023-06-14T05:15:54;16.20;99.90
35559;DHT22;21661;50.794;-1.066;2023-06-14T05:18:19;16.30;99.90
35559;DHT22;21661;50.794;-1.066;2023-06-14T05:20:45;16.30;99.90
35559;DHT22;21661;50.794;-1.066;2023-06-14T05:23:11;16.20;99.90
35559;DHT22;21661;50.794;-1.066;2023-06-14T05:25:45;16.20;99.90
35559;DHT22;21661;50.794;-1.066;2023-06-14T05:28:11;16.20;99.90
35559;DHT22;21661;50.794;-1.066;2023-06-14T05:30:38;16.20;99.90
35559;DHT22;21661;50.794;-1.066;2023-06-14T05:33:04;16.20;99.90
35559;DHT22;21661;50.794;-1.066;2023-06-14T05:35:29;16.30;99.90
35559;DHT22;21661;50.794;-1.066;2023-06-14T05:37:55;16.30;99.90
35559;DHT22;21661;50.794;-1.066;2023-06-14T05:40:20;16.30;99.90
35559;DHT22;21661;50.794;-1.066;2023-06-14T05:42:46;16.30;99.90
35559;DHT22;21661;50.794;-1.066;2023-06-14T05:45:12;16.30;99.90
35559;DHT22;21661;50.794;-1.066;2023-06-14T05:47:37;16.30;99.90
35559;DHT22;21661;50.794;-1.066;2023-06-14T05:50:03;16.30;99.90
35559;DHT22;21661;50.794;-1.066;2023-06-14T05:52:29;16.40;99.90
35559;DHT22;21661;50.794;-1.066;2023-06-14T05:54:55;16.30;99.90
35559;DHT22;21661;50.794;-1.066;2023-06-14T05:57:20;16.40;99.90
35559;DHT22;21661;50.794;-1.066;2023-06-14T05:59:46;16.40;99.90
35559;DHT22;21661;50.794;-1.066;2023-06-14T06:02:12;16.40;99.90
35559;DHT22;21661;50.794;-1.066;2023-06-14T06:04:37;16.50;99.90
35559;DHT22;21661;50.794;-1.066;2023-06-14T06:07:03;16.50;99.90
35559;DHT22;21661;50.794;-1.066;2023-06-14T06:09:29;16.50;99.90
35559;DHT22;21661;50.794;-1.066;2023-06-14T06:11:55;16.50;99.90
35559;DHT22;21661;50.794;-1.066;2023-06-14T06:14:21;16.50;99.90
35559;DHT22;21661;50.794;-1.066;2023-06-14T06:16:46;16.60;99.90
35559;DHT22;21661;50.794;-1.066;2023-06-14T06:19:12;16.50;99.90
35559;DHT22;21661;50.794;-1.066;2023-06-14T06:21:38;16.50;99.90
35559;DHT22;21661;50.794;-1.066;2023-06-14T06:24:05;16.40;99.90
35559;DHT22;21661;50.794;-1.066;2023-06-14T06:26:31;16.50;99.90
35559;DHT22;21661;50.794;-1.066;2023-06-14T06:29:00;16.50;99.90
35559;DHT22;21661;50.794;-1.066;2023-06-14T06:31:25;16.70;99.90
35559;DHT22;21661;50.794;-1.066;2023-06-14T06:33:53;16.60;99.90
35559;DHT22;21661;50.794;-1.066;2023-06-14T06:36:19;16.60;99.90
35559;DHT22;21661;50.794;-1.066;2023-06-14T06:38:47;16.60;99.90
35559;DHT22;21661;50.794;-1.066;2023-06-14T06:41:12;16.70;99.90
35559;DHT22;21661;50.794;-1.066;2023-06-14T06:43:38;16.70;99.90
35559;DHT22;21661;50.794;-1.066;2023-06-14T06:46:03;16.70;99.90
35559;DHT22;21661;50.794;-1.066;2023-06-14T06:48:29;16.80;99.90
35559;DHT22;21661;50.794;-1.066;2023-06-14T06:50:55;16.70;99.90
35559;DHT22;21661;50.794;-1.066;2023-06-14T06:53:21;16.80;99.90
35559;DHT22;21661;50.794;-1.066;2023-06-14T06:55:46;16.70;99.90
35559;DHT22;21661;50.794;-1.066;2023-06-14T06:58:13;16.80;99.90
35559;DHT22;21661;50.794;-1.066;2023-06-14T07:00:39;16.90;99.90
35559;DHT22;21661;50.794;-1.066;2023-06-14T07:03:05;16.90;99.90
35559;DHT22;21661;50.794;-1.066;2023-06-14T07:05:30;17.00;99.90
35559;DHT22;21661;50.794;-1.066;2023-06-14T07:07:56;17.10;99.90
35559;DHT22;21661;50.794;-1.066;2023-06-14T07:10:22;17.10;99.90
35559;DHT22;21661;50.794;-1.066;2023-06-14T07:12:50;17.20;99.90
35559;DHT22;21661;50.794;-1.066;2023-06-14T07:15:15;17.20;99.90
35559;DHT22;21661;50.794;-1.066;2023-06-14T07:17:41;17.30;99.90
35559;DHT22;21661;50.794;-1.066;2023-06-14T07:20:08;17.30;99.90
35559;DHT22;21661;50.794;-1.066;2023-06-14T07:22:42;17.40;99.90
35559;DHT22;21661;50.794;-1.066;2023-06-14T07:25:11;17.40;99.90
35559;DHT22;21661;50.794;-1.066;2023-06-14T07:27:41;17.50;99.90
35559;DHT22;21661;50.794;-1.066;2023-06-14T07:30:08;17.50;99.90
35559;DHT22;21661;50.794;-1.066;2023-06-14T07:32:33;17.50;99.90
35559;DHT22;21661;50.794;-1.066;2023-06-14T07:34:59;17.50;99.90
35559;DHT22;21661;50.794;-1.066;2023-06-14T07:37:25;17.50;99.90
35559;DHT22;21661;50.794;-1.066;2023-06-14T07:39:50;17.60;99.90
35559;DHT22;21661;50.794;-1.066;2023-06-14T07:42:16;17.70;99.90
35559;DHT22;21661;50.794;-1.066;2023-06-14T07:44:41;17.80;99.90
35559;DHT22;21661;50.794;-1.066;2023-06-14T07:47:07;17.90;99.90
35559;DHT22;21661;50.794;-1.066;2023-06-14T07:49:33;18.00;99.90
35559;DHT22;21661;50.794;-1.066;2023-06-14T07:51:58;18.20;99.90
35559;DHT22;21661;50.794;-1.066;2023-06-14T07:54:24;18.20;99.90
35559;DHT22;21661;50.794;-1.066;2023-06-14T07:56:52;18.30;99.90
35559;DHT22;21661;50.794;-1.066;2023-06-14T07:59:17;18.40;99.90
35559;DHT22;21661;50.794;-1.066;2023-06-14T08:01:43;18.50;99.90
35559;DHT22;21661;50.794;-1.066;2023-06-14T08:04:13;18.60;99.90
35559;DHT22;21661;50.794;-1.066;2023-06-14T08:06:38;18.60;99.90
35559;DHT22;21661;50.794;-1.066;2023-06-14T08:09:04;18.60;99.90
35559;DHT22;21661;50.794;-1.066;2023-06-14T08:11:31;18.70;99.90
35559;DHT22;21661;50.794;-1.066;2023-06-14T08:13:56;18.80;99.90
35559;DHT22;21661;50.794;-1.066;2023-06-14T08:16:22;18.90;99.90
35559;DHT22;21661;50.794;-1.066;2023-06-14T08:18:48;19.00;99.90
35559;DHT22;21661;50.794;-1.066;2023-06-14T08:21:14;19.10;99.90
35559;DHT22;21661;50.794;-1.066;2023-06-14T08:23:40;19.10;99.90
35559;DHT22;21661;50.794;-1.066;2023-06-14T08:26:08;19.20;99.90
35559;DHT22;21661;50.794;-1.066;2023-06-14T08:28:34;19.30;99.90
35559;DHT22;21661;50.794;-1.066;2023-06-14T08:30:59;19.30;99.90
35559;DHT22;21661;50.794;-1.066;2023-06-14T08:33:25;19.40;99.90
35559;DHT22;21661;50.794;-1.066;2023-06-14T08:35:51;19.40;99.90
35559;DHT22;21661;50.794;-1.066;2023-06-14T08:38:16;19.50;99.90
35559;DHT22;21661;50.794;-1.066;2023-06-14T08:40:42;19.60;99.90
35559;DHT22;21661;50.794;-1.066;2023-06-14T08:43:08;19.70;99.90
35559;DHT22;21661;50.794;-1.066;2023-06-14T08:45:34;19.80;99.90
35559;DHT22;21661;50.794;-1.066;2023-06-14T08:48:00;19.90;99.90
35559;DHT22;21661;50.794;-1.066;2023-06-14T08:50:26;20.00;99.90
35559;DHT22;21661;50.794;-1.066;2023-06-14T08:52:59;20.10;99.90
35559;DHT22;21661;50.794;-1.066;2023-06-14T08:55:29;20.20;99.90
35559;DHT22;21661;50.794;-1.066;2023-06-14T08:57:56;20.30;99.90
35559;DHT22;21661;50.794;-1.066;2023-06-14T09:00:26;20.30;99.90
35559;DHT22;21661;50.794;-1.066;2023-06-14T09:02:52;20.30;99.90
35559;DHT22;21661;50.794;-1.066;2023-06-14T09:05:27;20.40;99.90
35559;DHT22;21661;50.794;-1.066;2023-06-14T09:07:53;20.50;99.90
35559;DHT22;21661;50.794;-1.066;2023-06-14T09:10:21;20.60;99.90
35559;DHT22;21661;50.794;-1.066;2023-06-14T09:12:47;20.70;99.90
35559;DHT22;21661;50.794;-1.066;2023-06-14T09:15:13;20.90;99.90
35559;DHT22;21661;50.794;-1.066;2023-06-14T09:17:40;21.00;99.90
35559;DHT22;21661;50.794;-1.066;2023-06-14T09:20:07;21.00;99.90
35559;DHT22;21661;50.794;-1.066;2023-06-14T09:22:37;21.00;99.90
35559;DHT22;21661;50.794;-1.066;2023-06-14T09:25:03;21.10;99.90
35559;DHT22;21661;50.794;-1.066;2023-06-14T09:27:30;21.10;99.90
35559;DHT22;21661;50.794;-1.066;2023-06-14T09:29:56;21.20;99.90
35559;DHT22;21661;50.794;-1.066;2023-06-14T09:32:22;21.20;99.90
35559;DHT22;21661;50.794;-1.066;2023-06-14T09:34:48;21.40;99.90
35559;DHT22;21661;50.794;-1.066;2023-06-14T09:37:27;21.50;99.90
35559;DHT22;21661;50.794;-1.066;2023-06-14T09:39:53;21.60;99.90
35559;DHT22;21661;50.794;-1.066;2023-06-14T09:42:19;21.60;99.90
35559;DHT22;21661;50.794;-1.066;2023-06-14T09:44:48;21.60;99.90
35559;DHT22;21661;50.794;-1.066;2023-06-14T09:47:17;21.60;99.90
35559;DHT22;21661;50.794;-1.066;2023-06-14T09:49:44;21.70;99.90
35559;DHT22;21661;50.794;-1.066;2023-06-14T09:52:18;21.70;99.90
35559;DHT22;21661;50.794;-1.066;2023-06-14T09:54:45;21.80;99.90
35559;DHT22;21661;50.794;-1.066;2023-06-14T09:57:13;21.80;99.90
35559;DHT22;21661;50.794;-1.066;2023-06-14T09:59:51;21.90;99.90
35559;DHT22;21661;50.794;-1.066;2023-06-14T10:02:27;22.00;99.90
35559;DHT22;21661;50.794;-1.066;2023-06-14T10:05:02;22.10;99.90
35559;DHT22;21661;50.794;-1.066;2023-06-14T10:07:55;22.10;99.90
35559;DHT22;21661;50.794;-1.066;2023-06-14T10:10:24;22.20;99.90
35559;DHT22;21661;50.794;-1.066;2023-06-14T10:12:50;22.20;99.90
35559;DHT22;21661;50.794;-1.066;2023-06-14T10:15:20;22.30;99.90
35559;DHT22;21661;50.794;-1.066;2023-06-14T10:17:52;22.30;99.90
35559;DHT22;21661;50.794;-1.066;2023-06-14T10:20:44;22.30;99.90
35559;DHT22;21661;50.794;-1.066;2023-06-14T10:23:24;22.30;99.90
35559;DHT22;21661;50.794;-1.066;2023-06-14T10:25:54;22.40;99.90
35559;DHT22;21661;50.794;-1.066;2023-06-14T10:28:21;22.40;99.90
35559;DHT22;21661;50.794;-1.066;2023-06-14T10:33:36;22.40;99.90
35559;DHT22;21661;50.794;-1.066;2023-06-14T10:39:10;22.70;99.90
35559;DHT22;21661;50.794;-1.066;2023-06-14T10:41:38;22.70;99.90
35559;DHT22;21661;50.794;-1.066;2023-06-14T10:46:39;22.80;99.90
35559;DHT22;21661;50.794;-1.066;2023-06-14T10:49:04;22.90;99.90
35559;DHT22;21661;50.794;-1.066;2023-06-14T10:51:39;23.10;99.90
35559;DHT22;21661;50.794;-1.066;2023-06-14T10:54:14;23.30;99.90
35559;DHT22;21661;50.794;-1.066;2023-06-14T10:56:53;23.40;99.90
35559;DHT22;21661;50.794;-1.066;2023-06-14T10:59:20;23.50;99.90
35559;DHT22;21661;50.794;-1.066;2023-06-14T11:04:48;23.70;99.90
35559;DHT22;21661;50.794;-1.066;2023-06-14T11:10:41;23.70;99.90
35559;DHT22;21661;50.794;-1.066;2023-06-14T11:13:07;23.80;99.90
35559;DHT22;21661;50.794;-1.066;2023-06-14T11:15:37;23.90;99.90
35559;DHT22;21661;50.794;-1.066;2023-06-14T11:18:05;23.90;99.90
35559;DHT22;21661;50.794;-1.066;2023-06-14T11:20:33;24.00;99.90
35559;DHT22;21661;50.794;-1.066;2023-06-14T11:23:00;24.00;99.90
35559;DHT22;21661;50.794;-1.066;2023-06-14T11:25:25;24.10;99.90
35559;DHT22;21661;50.794;-1.066;2023-06-14T11:27:52;24.20;99.90
35559;DHT22;21661;50.794;-1.066;2023-06-14T11:30:18;24.20;99.90
35559;DHT22;21661;50.794;-1.066;2023-06-14T11:32:47;24.20;99.90
35559;DHT22;21661;50.794;-1.066;2023-06-14T11:35:13;24.30;99.90
35559;DHT22;21661;50.794;-1.066;2023-06-14T11:37:39;24.50;99.90
35559;DHT22;21661;50.794;-1.066;2023-06-14T11:40:08;24.50;99.90
35559;DHT22;21661;50.794;-1.066;2023-06-14T11:42:35;24.60;99.90
35559;DHT22;21661;50.794;-1.066;2023-06-14T11:45:02;24.70;99.90
35559;DHT22;21661;50.794;-1.066;2023-06-14T11:47:35;24.90;99.90
35559;DHT22;21661;50.794;-1.066;2023-06-14T11:50:05;25.00;99.90
35559;DHT22;21661;50.794;-1.066;2023-06-14T11:52:31;25.10;99.90
35559;DHT22;21661;50.794;-1.066;2023-06-14T11:54:57;25.30;99.90
35559;DHT22;21661;50.794;-1.066;2023-06-14T11:57:24;25.20;99.90
35559;DHT22;21661;50.794;-1.066;2023-06-14T11:59:49;25.10;99.90
35559;DHT22;21661;50.794;-1.066;2023-06-14T12:02:16;25.20;99.90
35559;DHT22;21661;50.794;-1.066;2023-06-14T12:04:42;25.10;99.90
35559;DHT22;21661;50.794;-1.066;2023-06-14T12:07:12;25.20;99.90
35559;DHT22;21661;50.794;-1.066;2023-06-14T12:09:41;25.20;99.90
35559;DHT22;21661;50.794;-1.066;2023-06-14T12:12:09;25.30;99.90
35559;DHT22;21661;50.794;-1.066;2023-06-14T12:14:36;25.20;99.90
35559;DHT22;21661;50.794;-1.066;2023-06-14T12:17:05;25.10;99.90
35559;DHT22;21661;50.794;-1.066;2023-06-14T12:19:42;25.10;99.90
35559;DHT22;21661;50.794;-1.066;2023-06-14T12:22:12;25.10;99.90
35559;DHT22;21661;50.794;-1.066;2023-06-14T12:24:38;25.10;99.90
35559;DHT22;21661;50.794;-1.066;2023-06-14T12:27:05;25.10;99.90
35559;DHT22;21661;50.794;-1.066;2023-06-14T12:29:31;25.10;99.90
35559;DHT22;21661;50.794;-1.066;2023-06-14T12:31:57;25.10;99.90
35559;DHT22;21661;50.794;-1.066;2023-06-14T12:34:23;25.10;99.90
35559;DHT22;21661;50.794;-1.066;2023-06-14T12:36:50;25.10;99.90
35559;DHT22;21661;50.794;-1.066;2023-06-14T12:39:16;25.10;99.90
35559;DHT22;21661;50.794;-1.066;2023-06-14T12:41:42;25.10;99.90
35559;DHT22;21661;50.794;-1.066;2023-06-14T12:44:09;25.10;99.90
35559;DHT22;21661;50.794;-1.066;2023-06-14T12:46:36;25.10;99.90
35559;DHT22;21661;50.794;-1.066;2023-06-14T12:49:02;25.10;99.90
35559;DHT22;21661;50.794;-1.066;2023-06-14T12:51:27;25.20;99.90
35559;DHT22;21661;50.794;-1.066;2023-06-14T12:53:53;25.20;99.90
35559;DHT22;21661;50.794;-1.066;2023-06-14T12:56:19;25.30;99.90
35559;DHT22;21661;50.794;-1.066;2023-06-14T12:58:45;25.40;99.90
35559;DHT22;21661;50.794;-1.066;2023-06-14T13:01:11;25.50;99.90
35559;DHT22;21661;50.794;-1.066;2023-06-14T13:03:36;25.60;99.90
35559;DHT22;21661;50.794;-1.066;2023-06-14T13:06:02;25.70;99.90
35559;DHT22;21661;50.794;-1.066;2023-06-14T13:08:29;25.80;99.90
35559;DHT22;21661;50.794;-1.066;2023-06-14T13:10:55;25.90;99.90
35559;DHT22;21661;50.794;-1.066;2023-06-14T13:13:21;26.10;99.90
35559;DHT22;21661;50.794;-1.066;2023-06-14T13:15:47;26.10;99.90
35559;DHT22;21661;50.794;-1.066;2023-06-14T13:18:14;26.20;99.90
35559;DHT22;21661;50.794;-1.066;2023-06-14T13:20:40;26.30;99.90
35559;DHT22;21661;50.794;-1.066;2023-06-14T13:23:05;26.40;99.90
35559;DHT22;21661;50.794;-1.066;2023-06-14T13:25:33;26.40;99.90
35559;DHT22;21661;50.794;-1.066;2023-06-14T13:27:59;26.40;99.90
35559;DHT22;21661;50.794;-1.066;2023-06-14T13:30:25;26.20;99.90
35559;DHT22;21661;50.794;-1.066;2023-06-14T13:32:51;26.00;99.90
35559;DHT22;21661;50.794;-1.066;2023-06-14T13:35:18;26.00;99.90
35559;DHT22;21661;50.794;-1.066;2023-06-14T13:37:44;26.10;99.90
35559;DHT22;21661;50.794;-1.066;2023-06-14T13:40:10;26.20;99.90
35559;DHT22;21661;50.794;-1.066;2023-06-14T13:42:36;26.10;99.90
35559;DHT22;21661;50.794;-1.066;2023-06-14T13:45:03;26.10;99.90
35559;DHT22;21661;50.794;-1.066;2023-06-14T13:47:29;26.10;99.90
35559;DHT22;21661;50.794;-1.066;2023-06-14T13:49:55;26.10;99.90
35559;DHT22;21661;50.794;-1.066;2023-06-14T13:52:21;26.00;99.90
35559;DHT22;21661;50.794;-1.066;2023-06-14T13:54:47;26.00;99.90
35559;DHT22;21661;50.794;-1.066;2023-06-14T13:57:12;25.90;99.90
35559;DHT22;21661;50.794;-1.066;2023-06-14T13:59:41;25.90;99.90
35559;DHT22;21661;50.794;-1.066;2023-06-14T14:02:09;25.80;99.90
35559;DHT22;21661;50.794;-1.066;2023-06-14T14:04:34;25.90;99.90
35559;DHT22;21661;50.794;-1.066;2023-06-14T14:07:04;25.90;99.90
35559;DHT22;21661;50.794;-1.066;2023-06-14T14:09:31;25.90;99.90
35559;DHT22;21661;50.794;-1.066;2023-06-14T14:11:58;25.80;99.90
35559;DHT22;21661;50.794;-1.066;2023-06-14T14:14:24;25.60;99.90
35559;DHT22;21661;50.794;-1.066;2023-06-14T14:16:50;25.60;99.90
35559;DHT22;21661;50.794;-1.066;2023-06-14T14:19:17;25.60;99.90
35559;DHT22;21661;50.794;-1.066;2023-06-14T14:21:44;25.70;99.90
35559;DHT22;21661;50.794;-1.066;2023-06-14T14:24:10;25.80;99.90
35559;DHT22;21661;50.794;-1.066;2023-06-14T14:26:36;25.70;99.90
35559;DHT22;21661;50.794;-1.066;2023-06-14T14:29:01;25.70;99.90
35559;DHT22;21661;50.794;-1.066;2023-06-14T14:31:28;25.60;99.90
35559;DHT22;21661;50.794;-1.066;2023-06-14T14:33:53;25.50;99.90
35559;DHT22;21661;50.794;-1.066;2023-06-14T14:36:19;25.60;99.90
35559;DHT22;21661;50.794;-1.066;2023-06-14T14:38:45;25.70;99.90
35559;DHT22;21661;50.794;-1.066;2023-06-14T14:41:12;25.70;99.90
35559;DHT22;21661;50.794;-1.066;2023-06-14T14:43:38;25.70;99.90
35559;DHT22;21661;50.794;-1.066;2023-06-14T14:46:04;25.70;99.90
35559;DHT22;21661;50.794;-1.066;2023-06-14T14:48:29;25.70;99.90
35559;DHT22;21661;50.794;-1.066;2023-06-14T14:50:55;25.70;99.90
35559;DHT22;21661;50.794;-1.066;2023-06-14T14:53:20;25.80;99.90
35559;DHT22;21661;50.794;-1.066;2023-06-14T14:55:46;25.70;99.90
35559;DHT22;21661;50.794;-1.066;2023-06-14T14:58:13;26.00;99.90
35559;DHT22;21661;50.794;-1.066;2023-06-14T15:00:42;26.10;99.90
35559;DHT22;21661;50.794;-1.066;2023-06-14T15:03:08;26.10;99.90
35559;DHT22;21661;50.794;-1.066;2023-06-14T15:05:33;26.10;99.90
35559;DHT22;21661;50.794;-1.066;2023-06-14T15:07:59;25.90;99.90
35559;DHT22;21661;50.794;-1.066;2023-06-14T15:10:24;25.90;99.90
35559;DHT22;21661;50.794;-1.066;2023-06-14T15:12:50;25.90;99.90
35559;DHT22;21661;50.794;-1.066;2023-06-14T15:15:15;25.80;99.90
35559;DHT22;21661;50.794;-1.066;2023-06-14T15:17:41;25.90;99.90
35559;DHT22;21661;50.794;-1.066;2023-06-14T15:20:07;25.80;99.90
35559;DHT22;21661;50.794;-1.066;2023-06-14T15:22:33;25.80;99.90
35559;DHT22;21661;50.794;-1.066;2023-06-14T15:24:59;25.80;99.90
35559;DHT22;21661;50.794;-1.066;2023-06-14T15:27:25;25.80;99.90
35559;DHT22;21661;50.794;-1.066;2023-06-14T15:29:51;25.80;99.90
35559;DHT22;21661;50.794;-1.066;2023-06-14T15:32:16;25.80;99.90
35559;DHT22;21661;50.794;-1.066;2023-06-14T15:34:42;26.00;99.90